Time;durP1;ratioP1;P1;durP2;ratioP2;P2;SDS_P1;SDS_P2;PMS_P1;PMS_P2;Temp;Humidity;BMP_temperature;BMP_pressure;BME280_temperature;BME280_humidity;BME280_pressure;Samples;Min_cycle;Max_cycle;Signal;HPM_P1;HPM_P2
2022/10/27 00:01:31;;;;;;;10.88;2.88;;;15.30;99.90;;;;;;5016733;28;20468;-91
2022/10/27 00:03:57;;;;;;;15.10;3.80;;;15.30;99.90;;;;;;5017920;28;20030;-93
2022/10/27 00:06:23;;;;;;;10.82;3.50;;;15.30;99.90;;;;;;5017779;28;20026;-92
2022/10/27 00:08:50;;;;;;;12.30;3.33;;;15.30;99.90;;;;;;5020990;28;20503;-92
2022/10/27 00:11:15;;;;;;;13.32;2.97;;;15.20;99.90;;;;;;5017233;28;20053;-92
2022/10/27 00:13:41;;;;;;;12.65;2.63;;;15.20;99.90;;;;;;5026183;28;20105;-92
2022/10/27 00:16:15;;;;;;;11.57;2.67;;;15.30;99.90;;;;;;5020692;28;20095;-92
2022/10/27 00:18:42;;;;;;;15.02;3.22;;;15.30;99.90;;;;;;5020397;28;20025;-94
2022/10/27 00:21:11;;;;;;;9.07;2.63;;;15.40;99.90;;;;;;5029445;28;20116;-92
2022/10/27 00:23:37;;;;;;;8.40;2.45;;;15.40;99.90;;;;;;5021683;28;20068;-89
2022/10/27 00:26:05;;;;;;;6.88;2.50;;;15.50;99.90;;;;;;5026560;28;20022;-94
2022/10/27 00:28:31;;;;;;;12.25;2.33;;;15.50;99.90;;;;;;5019824;28;20447;-91
2022/10/27 00:31:11;;;;;;;16.17;2.90;;;15.50;99.90;;;;;;5019811;28;20538;-93
2022/10/27 00:33:38;;;;;;;7.90;2.55;;;15.60;99.90;;;;;;5020270;28;20029;-88
2022/10/27 00:36:07;;;;;;;6.28;2.10;;;15.60;99.90;;;;;;5024012;28;20033;-91
2022/10/27 00:38:32;;;;;;;7.82;2.72;;;15.50;99.90;;;;;;5016658;28;20025;-90
2022/10/27 00:40:58;;;;;;;6.45;1.77;;;15.60;99.90;;;;;;5016296;28;20048;-91
2022/10/27 00:43:25;;;;;;;15.07;2.80;;;15.60;99.90;;;;;;5014202;28;20471;-90
2022/10/27 00:45:52;;;;;;;17.60;2.17;;;15.60;99.90;;;;;;5019614;28;20033;-92
2022/10/27 00:48:18;;;;;;;7.40;1.80;;;15.70;99.90;;;;;;5029260;28;20029;-91
2022/10/27 00:50:44;;;;;;;6.00;1.73;;;15.70;99.90;;;;;;5018552;28;20494;-91
2022/10/27 00:53:10;;;;;;;7.38;2.03;;;15.70;99.90;;;;;;5020785;28;20022;-92
2022/10/27 00:55:38;;;;;;;6.40;2.05;;;15.60;99.90;;;;;;5017660;28;20037;-90
2022/10/27 00:58:08;;;;;;;7.45;3.25;;;15.50;99.90;;;;;;5024045;28;20433;-91
2022/10/27 01:00:37;;;;;;;8.45;2.63;;;15.40;99.90;;;;;;5018614;28;20029;-92
2022/10/27 01:03:06;;;;;;;7.05;1.92;;;15.40;99.90;;;;;;5018514;28;20033;-91
2022/10/27 01:05:33;;;;;;;3.38;1.60;;;15.30;99.90;;;;;;5023736;28;20033;-91
2022/10/27 01:08:02;;;;;;;7.13;1.67;;;15.20;99.90;;;;;;5020085;28;20034;-92
2022/10/27 01:10:28;;;;;;;6.65;2.03;;;15.20;99.90;;;;;;5025884;28;20171;-90
2022/10/27 01:12:54;;;;;;;4.43;1.60;;;15.10;99.90;;;;;;5022750;28;20147;-91
2022/10/27 01:15:25;;;;;;;4.93;1.52;;;15.00;99.90;;;;;;5018825;28;20544;-91
2022/10/27 01:18:02;;;;;;;3.08;1.70;;;14.90;99.90;;;;;;5021766;28;20033;-92
2022/10/27 01:21:00;;;;;;;2.10;1.42;;;14.80;99.90;;;;;;5015839;28;20021;-92
2022/10/27 01:23:37;;;;;;;4.45;1.75;;;14.70;99.90;;;;;;5016739;28;20490;-91
2022/10/27 01:26:13;;;;;;;3.35;1.58;;;14.70;99.90;;;;;;5018306;28;20053;-90
2022/10/27 01:29:06;;;;;;;2.30;1.38;;;14.70;99.90;;;;;;5023940;28;20033;-91
2022/10/27 01:31:37;;;;;;;3.55;1.52;;;14.60;99.90;;;;;;5020514;28;20032;-90
2022/10/27 01:34:27;;;;;;;4.20;1.60;;;14.60;99.90;;;;;;5020388;28;20059;-91
2022/10/27 01:37:20;;;;;;;4.13;2.08;;;14.50;99.90;;;;;;5019884;28;20030;-92
2022/10/27 01:40:16;;;;;;;4.97;1.33;;;14.40;99.90;;;;;;5020912;28;20036;-91
2022/10/27 01:42:49;;;;;;;15.53;2.60;;;14.30;99.90;;;;;;5013453;28;20052;-90
2022/10/27 01:45:26;;;;;;;9.10;2.13;;;14.20;99.90;;;;;;5019011;28;20049;-91
2022/10/27 01:47:55;;;;;;;5.82;1.98;;;14.10;99.90;;;;;;5021286;28;20057;-92
2022/10/27 01:50:28;;;;;;;10.18;1.95;;;14.00;99.90;;;;;;5024574;28;20017;-91
2022/10/27 01:52:54;;;;;;;7.15;2.05;;;13.90;99.90;;;;;;5021241;28;20481;-90
2022/10/27 01:55:33;;;;;;;11.82;2.10;;;13.90;99.90;;;;;;5027532;28;20124;-90
2022/10/27 01:58:09;;;;;;;3.38;1.80;;;13.90;99.90;;;;;;5020838;28;20084;-93
2022/10/27 02:00:48;;;;;;;6.65;2.20;;;13.90;99.90;;;;;;5024076;28;20049;-92
2022/10/27 02:03:18;;;;;;;3.58;1.88;;;14.00;99.90;;;;;;5022175;28;20028;-92
2022/10/27 02:06:06;;;;;;;8.23;2.88;;;14.10;99.90;;;;;;5020447;28;20495;-90
2022/10/27 02:08:31;;;;;;;20.35;3.60;;;14.20;99.90;;;;;;5015462;28;20026;-91
2022/10/27 02:11:08;;;;;;;7.22;2.00;;;14.30;99.90;;;;;;5022149;28;20046;-90
2022/10/27 02:13:37;;;;;;;9.93;2.38;;;14.40;99.90;;;;;;5017112;28;20035;-90
2022/10/27 02:16:07;;;;;;;3.92;1.90;;;14.40;99.90;;;;;;5021825;28;20045;-91
2022/10/27 02:18:37;;;;;;;12.73;2.08;;;14.40;99.90;;;;;;5024495;28;20042;-90
2022/10/27 02:21:06;;;;;;;14.07;3.20;;;14.30;99.90;;;;;;5023361;28;20088;-89
2022/10/27 02:23:32;;;;;;;9.85;2.83;;;14.20;99.90;;;;;;5021494;28;20521;-90
2022/10/27 02:26:14;;;;;;;3.67;1.98;;;14.10;99.90;;;;;;5014837;28;20030;-90
2022/10/27 02:28:56;;;;;;;7.70;1.73;;;14.00;99.90;;;;;;5017830;28;20064;-91
2022/10/27 02:31:27;;;;;;;10.73;2.00;;;14.00;99.90;;;;;;5022315;28;20026;-90
2022/10/27 02:33:53;;;;;;;6.25;1.90;;;13.90;99.90;;;;;;5023740;28;20049;-91
2022/10/27 02:36:19;;;;;;;7.80;2.30;;;13.90;99.90;;;;;;5018036;28;20099;-90
2022/10/27 02:38:44;;;;;;;6.28;1.75;;;13.90;99.90;;;;;;5017241;28;20479;-90
2022/10/27 02:41:10;;;;;;;5.15;2.10;;;13.80;99.90;;;;;;5017157;28;20030;-90
2022/10/27 02:43:36;;;;;;;7.32;2.17;;;13.80;99.90;;;;;;5017824;28;20211;-90
2022/10/27 02:46:01;;;;;;;4.70;1.65;;;13.80;99.90;;;;;;5007119;28;20035;-90
2022/10/27 02:48:28;;;;;;;7.50;1.65;;;13.70;99.90;;;;;;5022825;28;20017;-90
2022/10/27 02:50:53;;;;;;;6.22;1.85;;;13.70;99.90;;;;;;5019446;28;20536;-90
2022/10/27 02:53:19;;;;;;;6.07;1.52;;;13.60;99.90;;;;;;5022185;28;20033;-90
2022/10/27 02:55:45;;;;;;;4.43;2.05;;;13.60;99.90;;;;;;5019273;28;20042;-88
2022/10/27 02:58:10;;;;;;;7.40;2.15;;;13.60;99.90;;;;;;5019361;28;20045;-91
2022/10/27 03:00:36;;;;;;;7.32;1.95;;;13.60;99.90;;;;;;5017778;28;20364;-93
2022/10/27 03:03:04;;;;;;;10.50;2.55;;;13.60;99.90;;;;;;5019916;28;20018;-89
2022/10/27 03:05:30;;;;;;;7.97;2.00;;;13.70;99.90;;;;;;5027035;28;20037;-91
2022/10/27 03:07:55;;;;;;;6.70;1.90;;;13.70;99.90;;;;;;5027454;28;20493;-91
2022/10/27 03:10:21;;;;;;;10.88;2.47;;;13.90;99.90;;;;;;5025410;28;20029;-91
2022/10/27 03:12:47;;;;;;;8.98;2.45;;;14.00;99.90;;;;;;5013531;28;20522;-90
2022/10/27 03:15:14;;;;;;;2.95;1.88;;;14.10;99.90;;;;;;5017554;28;20091;-89
2022/10/27 03:17:46;;;;;;;6.70;2.13;;;14.10;99.90;;;;;;5025065;28;20509;-90
2022/10/27 03:20:13;;;;;;;4.03;1.80;;;14.20;99.90;;;;;;5019377;28;20386;-89
2022/10/27 03:22:40;;;;;;;4.57;1.70;;;14.20;99.90;;;;;;5022074;28;20033;-91
2022/10/27 03:25:07;;;;;;;4.03;1.80;;;14.20;99.90;;;;;;5030398;28;20026;-90
2022/10/27 03:27:33;;;;;;;6.25;1.80;;;14.10;99.90;;;;;;5011881;28;20458;-90
2022/10/27 03:29:58;;;;;;;4.30;1.67;;;14.10;99.90;;;;;;5021309;28;20105;-90
2022/10/27 03:32:24;;;;;;;1.98;1.42;;;14.00;99.90;;;;;;5017661;28;20030;-91
2022/10/27 03:34:49;;;;;;;8.13;1.88;;;14.00;99.90;;;;;;5019408;28;20115;-90
2022/10/27 03:37:15;;;;;;;4.38;1.98;;;13.90;99.90;;;;;;5018785;28;20033;-92
2022/10/27 03:39:41;;;;;;;3.53;1.58;;;13.80;99.90;;;;;;5019357;28;20034;-90
2022/10/27 03:42:06;;;;;;;2.92;1.73;;;13.70;99.90;;;;;;5019194;28;20034;-91
2022/10/27 03:44:32;;;;;;;5.60;1.63;;;13.60;99.90;;;;;;5025846;28;20034;-90
2022/10/27 03:46:57;;;;;;;2.58;1.50;;;13.50;99.90;;;;;;5014173;28;20487;-91
2022/10/27 03:49:23;;;;;;;2.10;1.38;;;13.40;99.90;;;;;;5021005;28;20033;-89
2022/10/27 03:51:49;;;;;;;4.10;2.00;;;13.40;99.90;;;;;;5017096;28;20494;-91
2022/10/27 03:54:14;;;;;;;3.80;1.52;;;13.30;99.90;;;;;;5024562;28;20544;-91
2022/10/27 03:56:40;;;;;;;5.07;1.73;;;13.20;99.90;;;;;;5022524;28;20037;-89
2022/10/27 03:59:05;;;;;;;3.53;1.65;;;13.10;99.90;;;;;;5013925;28;20042;-90
2022/10/27 04:01:33;;;;;;;7.60;1.70;;;13.10;99.90;;;;;;5018852;28;20057;-90
2022/10/27 04:03:59;;;;;;;5.35;1.60;;;13.00;99.90;;;;;;5025285;28;20026;-91
2022/10/27 04:06:24;;;;;;;9.00;2.00;;;12.90;99.90;;;;;;5022957;28;20088;-90
2022/10/27 04:08:50;;;;;;;11.60;1.95;;;12.90;99.90;;;;;;5017707;28;20053;-90
2022/10/27 04:11:15;;;;;;;7.32;1.77;;;13.00;99.90;;;;;;5023429;28;20580;-91
2022/10/27 04:13:41;;;;;;;9.40;2.50;;;12.90;99.90;;;;;;5024292;28;20089;-90
2022/10/27 04:16:07;;;;;;;15.40;2.05;;;13.10;99.90;;;;;;5025469;28;20090;-91
2022/10/27 04:18:33;;;;;;;6.95;2.42;;;13.20;99.90;;;;;;5023899;28;20057;-89
2022/10/27 04:21:03;;;;;;;9.68;2.40;;;13.30;99.90;;;;;;5024767;28;20441;-90
2022/10/27 04:23:29;;;;;;;4.72;1.75;;;13.40;99.90;;;;;;5023158;28;20088;-90
2022/10/27 04:25:55;;;;;;;5.88;1.85;;;13.50;99.90;;;;;;5024460;28;20053;-90
2022/10/27 04:28:21;;;;;;;7.78;2.17;;;13.50;99.90;;;;;;5018615;28;20391;-90
2022/10/27 04:30:46;;;;;;;7.78;2.42;;;13.50;99.90;;;;;;5020065;28;20053;-90
2022/10/27 04:33:12;;;;;;;5.93;1.85;;;13.40;99.90;;;;;;5015865;28;20092;-91
2022/10/27 04:35:38;;;;;;;2.40;1.85;;;13.40;99.90;;;;;;5016760;28;20045;-89
2022/10/27 04:38:03;;;;;;;7.93;1.90;;;13.30;99.90;;;;;;5018586;28;20038;-91
2022/10/27 04:40:29;;;;;;;6.07;1.20;;;13.30;99.90;;;;;;5019335;28;20025;-90
2022/10/27 04:42:55;;;;;;;4.60;1.95;;;13.20;99.90;;;;;;5015033;28;20022;-90
2022/10/27 04:45:21;;;;;;;4.07;1.75;;;13.10;99.90;;;;;;5021212;28;20115;-89
2022/10/27 04:47:47;;;;;;;3.42;1.83;;;13.00;99.90;;;;;;5021278;28;20066;-89
2022/10/27 04:50:13;;;;;;;6.38;1.80;;;12.90;99.90;;;;;;5019623;28;20030;-88
2022/10/27 04:52:39;;;;;;;7.50;1.70;;;12.90;99.90;;;;;;5011467;28;20036;-88
2022/10/27 04:55:05;;;;;;;4.05;2.15;;;12.80;99.90;;;;;;5017504;28;20442;-89
2022/10/27 04:57:31;;;;;;;7.50;1.90;;;12.70;99.90;;;;;;5014810;28;20029;-89
2022/10/27 04:59:56;;;;;;;5.55;1.63;;;12.70;99.90;;;;;;5016044;28;20375;-88
2022/10/27 05:02:22;;;;;;;8.27;2.17;;;12.60;99.90;;;;;;5015614;28;20085;-88
2022/10/27 05:04:48;;;;;;;2.72;1.45;;;12.50;99.90;;;;;;5016594;28;20041;-88
2022/10/27 05:07:13;;;;;;;14.00;2.35;;;12.50;99.90;;;;;;5025546;28;20056;-88
2022/10/27 05:09:39;;;;;;;7.10;1.70;;;12.40;99.90;;;;;;5019994;28;20034;-88
2022/10/27 05:12:05;;;;;;;8.48;2.35;;;12.40;99.90;;;;;;5018838;28;20053;-89
2022/10/27 05:14:30;;;;;;;10.25;1.83;;;12.40;99.90;;;;;;5016991;28;20030;-89
2022/10/27 05:16:56;;;;;;;6.18;2.25;;;12.30;99.90;;;;;;5020158;28;20030;-89
2022/10/27 05:19:21;;;;;;;5.80;1.80;;;12.30;99.90;;;;;;5021133;28;20072;-89
2022/10/27 05:21:47;;;;;;;2.85;1.70;;;12.20;99.90;;;;;;5019548;28;20032;-88
2022/10/27 05:24:13;;;;;;;3.10;1.42;;;12.20;99.90;;;;;;5018171;28;20492;-88
2022/10/27 05:26:39;;;;;;;1.05;1.05;;;12.20;99.90;;;;;;5019557;28;20392;-88
2022/10/27 05:29:05;;;;;;;1.33;1.23;;;12.20;99.90;;;;;;5021612;28;20029;-89
2022/10/27 05:31:30;;;;;;;2.45;1.27;;;12.20;99.90;;;;;;5014790;28;20394;-87
2022/10/27 05:33:56;;;;;;;4.15;1.60;;;12.20;99.90;;;;;;5018060;28;20040;-88
2022/10/27 05:36:21;;;;;;;6.90;1.90;;;12.20;99.90;;;;;;5022410;28;20053;-89
2022/10/27 05:38:47;;;;;;;5.60;1.98;;;12.10;99.90;;;;;;5022492;28;20026;-89
2022/10/27 05:41:13;;;;;;;3.50;1.38;;;12.10;99.90;;;;;;5018929;28;20026;-89
2022/10/27 05:43:40;;;;;;;3.17;1.92;;;12.00;99.90;;;;;;5023440;28;20033;-89
2022/10/27 05:46:07;;;;;;;6.43;1.77;;;12.00;99.90;;;;;;5019459;28;20036;-89
2022/10/27 05:48:33;;;;;;;4.68;1.23;;;12.00;99.90;;;;;;5017351;28;20034;-88
2022/10/27 05:50:58;;;;;;;2.80;1.60;;;12.10;99.90;;;;;;5021119;28;20107;-88
2022/10/27 05:53:24;;;;;;;5.68;1.88;;;12.10;99.90;;;;;;5024046;28;20067;-89
2022/10/27 05:55:53;;;;;;;4.35;1.30;;;12.10;99.90;;;;;;5024954;28;20072;-88
2022/10/27 05:58:18;;;;;;;2.75;1.42;;;12.20;99.90;;;;;;5001733;28;20071;-88
2022/10/27 06:00:44;;;;;;;6.32;1.70;;;12.20;99.90;;;;;;5027878;28;20030;-89
2022/10/27 06:03:21;;;;;;;2.75;1.60;;;12.30;99.90;;;;;;5012463;28;20442;-89
2022/10/27 06:05:47;;;;;;;5.50;1.92;;;12.30;99.90;;;;;;5009914;28;20456;-88
2022/10/27 06:08:14;;;;;;;3.60;1.52;;;12.30;99.90;;;;;;5021780;28;20125;-89
2022/10/27 06:10:40;;;;;;;5.28;1.58;;;12.40;99.90;;;;;;5001545;28;20039;-88
2022/10/27 06:13:06;;;;;;;3.53;1.70;;;12.50;99.90;;;;;;5026112;28;20021;-89
2022/10/27 06:15:33;;;;;;;3.60;1.95;;;12.40;99.90;;;;;;5020270;28;20030;-88
2022/10/27 06:17:59;;;;;;;5.55;1.80;;;12.40;99.90;;;;;;5011528;28;20033;-88
2022/10/27 06:20:25;;;;;;;6.13;1.90;;;12.40;99.90;;;;;;5009192;28;20030;-89
2022/10/27 06:22:51;;;;;;;4.60;1.90;;;12.30;99.90;;;;;;5023067;28;20037;-89
2022/10/27 06:25:17;;;;;;;3.60;1.45;;;12.20;99.90;;;;;;5008763;28;20041;-88
2022/10/27 06:27:43;;;;;;;2.40;1.67;;;12.20;99.90;;;;;;5013406;28;20083;-89
2022/10/27 06:30:08;;;;;;;2.38;1.55;;;12.20;99.90;;;;;;5017703;28;20087;-88
2022/10/27 06:32:38;;;;;;;3.10;2.08;;;12.20;99.90;;;;;;5018723;28;20026;-88
2022/10/27 06:35:05;;;;;;;5.80;1.80;;;12.30;99.90;;;;;;5027704;28;20038;-89
2022/10/27 06:37:31;;;;;;;4.70;2.40;;;12.30;99.90;;;;;;5024538;28;20040;-89
2022/10/27 06:39:56;;;;;;;4.05;1.60;;;12.30;99.90;;;;;;5026636;28;20037;-90
2022/10/27 06:42:23;;;;;;;5.22;1.80;;;12.40;99.90;;;;;;5019078;28;20045;-90
2022/10/27 06:44:49;;;;;;;7.57;2.05;;;12.30;99.90;;;;;;5018639;28;20030;-90
2022/10/27 06:47:14;;;;;;;6.22;2.03;;;12.40;99.90;;;;;;5017255;28;20030;-89
2022/10/27 06:49:40;;;;;;;5.68;2.30;;;12.50;99.90;;;;;;5020462;28;20038;-89
2022/10/27 06:52:06;;;;;;;5.05;1.95;;;12.60;99.90;;;;;;5018702;28;20025;-89
2022/10/27 06:54:31;;;;;;;3.10;1.88;;;12.60;99.90;;;;;;5023091;28;20064;-89
2022/10/27 06:56:57;;;;;;;8.93;1.88;;;12.60;99.90;;;;;;5020006;28;20034;-90
2022/10/27 06:59:26;;;;;;;11.90;2.45;;;12.70;99.90;;;;;;5018717;28;20029;-89
2022/10/27 07:01:51;;;;;;;5.90;1.98;;;12.80;99.90;;;;;;5017773;28;20047;-90
2022/10/27 07:04:17;;;;;;;7.03;2.00;;;12.90;99.90;;;;;;5013265;28;20383;-88
2022/10/27 07:06:43;;;;;;;4.60;2.05;;;13.00;99.90;;;;;;5020701;28;20025;-90
2022/10/27 07:09:10;;;;;;;9.23;1.95;;;13.00;99.90;;;;;;5019133;28;20026;-91
2022/10/27 07:11:35;;;;;;;15.93;2.75;;;13.10;99.90;;;;;;5016982;28;20141;-92
2022/10/27 07:14:01;;;;;;;4.85;2.10;;;13.20;99.90;;;;;;5017239;28;20046;-90
2022/10/27 07:16:27;;;;;;;10.88;2.40;;;13.40;99.90;;;;;;5024671;28;20037;-91
2022/10/27 07:18:52;;;;;;;7.95;2.03;;;13.60;99.90;;;;;;5027956;28;20025;-91
2022/10/27 07:21:18;;;;;;;7.18;2.20;;;13.80;99.90;;;;;;5027645;28;20387;-91
2022/10/27 07:23:43;;;;;;;6.85;1.60;;;14.10;99.90;;;;;;5023606;28;20117;-90
2022/10/27 07:26:09;;;;;;;4.85;1.75;;;14.40;99.90;;;;;;5021025;28;20029;-92
2022/10/27 07:28:35;;;;;;;6.63;1.70;;;14.60;99.90;;;;;;5017427;28;20475;-90
2022/10/27 07:31:01;;;;;;;8.55;1.98;;;14.80;99.90;;;;;;5009712;28;20034;-89
2022/10/27 07:33:26;;;;;;;9.13;3.08;;;14.90;99.90;;;;;;5020447;28;20309;-90
2022/10/27 07:35:52;;;;;;;4.00;1.50;;;15.00;99.90;;;;;;5015535;28;20103;-91
2022/10/27 07:38:19;;;;;;;6.10;1.98;;;15.00;99.90;;;;;;5028127;28;20032;-89
2022/10/27 07:40:45;;;;;;;5.25;1.73;;;15.00;99.90;;;;;;5017035;28;20036;-93
2022/10/27 07:43:11;;;;;;;9.25;1.63;;;14.90;99.90;;;;;;5027674;28;20034;-91
2022/10/27 07:45:39;;;;;;;4.25;1.48;;;14.90;99.90;;;;;;5027490;28;20092;-91
2022/10/27 07:48:07;;;;;;;8.90;1.83;;;14.80;99.90;;;;;;5027236;28;20034;-91
2022/10/27 07:50:33;;;;;;;11.98;3.03;;;14.80;99.90;;;;;;5027407;28;20433;-90
2022/10/27 07:52:59;;;;;;;7.38;1.80;;;14.90;99.90;;;;;;5021843;28;20034;-89
2022/10/27 07:55:27;;;;;;;8.73;1.98;;;14.90;99.90;;;;;;5016681;28;20112;-91
2022/10/27 07:57:59;;;;;;;14.00;1.60;;;15.00;99.90;;;;;;5017637;28;20037;-92
2022/10/27 08:00:26;;;;;;;6.43;1.80;;;15.10;99.90;;;;;;5026595;28;20025;-91
2022/10/27 08:02:51;;;;;;;7.88;1.80;;;15.20;99.90;;;;;;5006040;28;20030;-91
2022/10/27 08:05:17;;;;;;;6.97;2.05;;;15.30;99.90;;;;;;5017747;28;20391;-90
2022/10/27 08:07:42;;;;;;;5.00;1.65;;;15.40;99.90;;;;;;5008400;28;20034;-92
2022/10/27 08:10:09;;;;;;;7.53;2.05;;;15.50;99.90;;;;;;5008607;28;20034;-93
2022/10/27 08:12:40;;;;;;;16.45;1.95;;;15.60;99.90;;;;;;5009923;28;20037;-94
2022/10/27 08:15:07;;;;;;;13.98;1.90;;;15.60;99.90;;;;;;4996428;28;20049;-92
2022/10/27 08:17:33;;;;;;;5.07;1.67;;;15.70;99.90;;;;;;5013120;28;20168;-92
2022/10/27 08:19:58;;;;;;;8.95;1.90;;;15.80;99.90;;;;;;5013224;28;20116;-91
2022/10/27 08:22:24;;;;;;;6.82;1.85;;;15.80;99.90;;;;;;5018777;28;20026;-92
2022/10/27 08:24:50;;;;;;;11.43;2.08;;;15.90;99.90;;;;;;5013385;28;20123;-93
2022/10/27 08:27:15;;;;;;;5.68;1.75;;;15.90;99.90;;;;;;5021657;28;20022;-92
2022/10/27 08:29:41;;;;;;;4.07;1.83;;;15.90;99.90;;;;;;5016836;28;20026;-93
2022/10/27 08:32:09;;;;;;;7.78;2.13;;;16.00;99.90;;;;;;5011456;28;20032;-92
2022/10/27 08:34:34;;;;;;;6.57;2.80;;;16.10;99.90;;;;;;5017739;28;20498;-92
2022/10/27 08:37:00;;;;;;;30.65;23.05;;;16.10;99.90;;;;;;5021370;28;20105;-90
2022/10/27 08:39:25;;;;;;;10.02;7.07;;;16.10;99.90;;;;;;5014514;28;20037;-92
2022/10/27 08:42:29;;;;;;;7.18;4.72;;;16.10;99.90;;;;;;5024199;28;20216;-92
2022/10/27 08:45:01;;;;;;;7.15;2.30;;;16.20;99.90;;;;;;5020863;28;20021;-93
2022/10/27 08:47:27;;;;;;;4.22;1.90;;;16.10;99.90;;;;;;5024501;28;20026;-93
2022/10/27 08:50:13;;;;;;;1.98;1.40;;;16.20;99.90;;;;;;5029737;28;20037;-92
2022/10/27 08:52:44;;;;;;;5.00;1.35;;;16.20;99.90;;;;;;5013408;28;20041;-87
2022/10/27 08:55:13;;;;;;;7.82;1.80;;;16.20;99.90;;;;;;5020389;28;20077;-92
2022/10/27 08:57:47;;;;;;;8.55;2.20;;;16.30;99.90;;;;;;5013293;28;20160;-92
2022/10/27 09:00:14;;;;;;;5.68;1.90;;;16.40;99.90;;;;;;5017050;28;20112;-87
2022/10/27 09:02:59;;;;;;;3.35;1.30;;;16.40;99.90;;;;;;5029930;28;20040;-91
2022/10/27 09:05:58;;;;;;;2.30;1.20;;;16.40;99.90;;;;;;5021215;28;20045;-92
2022/10/27 09:08:39;;;;;;;4.85;2.40;;;16.50;99.90;;;;;;5019687;28;20045;-95
2022/10/27 09:11:10;;;;;;;8.93;1.63;;;16.50;99.90;;;;;;5028111;28;20080;-94
2022/10/27 09:13:58;;;;;;;8.70;1.90;;;16.60;99.90;;;;;;5029076;28;20017;-92
2022/10/27 09:16:43;;;;;;;7.05;1.70;;;16.60;99.90;;;;;;5015531;28;20082;-93
2022/10/27 09:19:16;;;;;;;26.08;2.83;;;16.70;99.90;;;;;;5030442;28;20030;-91
2022/10/27 09:21:43;;;;;;;6.63;1.60;;;16.70;99.90;;;;;;5030477;28;20021;-91
2022/10/27 09:24:16;;;;;;;9.45;1.50;;;16.90;99.90;;;;;;5011903;28;20510;-95
2022/10/27 09:26:43;;;;;;;7.30;2.03;;;17.00;99.90;;;;;;5030998;28;20033;-93
2022/10/27 09:29:20;;;;;;;5.82;1.52;;;17.10;99.90;;;;;;5018706;28;20423;-93
2022/10/27 09:31:57;;;;;;;7.03;1.77;;;17.10;99.90;;;;;;5018984;28;20032;-91
2022/10/27 09:34:28;;;;;;;11.02;2.00;;;17.10;99.90;;;;;;5032151;28;20028;-94
2022/10/27 09:36:54;;;;;;;6.57;2.08;;;17.10;99.90;;;;;;5011405;28;20037;-96
2022/10/27 09:39:21;;;;;;;5.30;1.67;;;17.20;99.90;;;;;;5013812;28;20030;-95
2022/10/27 09:41:47;;;;;;;7.75;1.80;;;17.20;99.90;;;;;;5018961;28;20109;-92
2022/10/27 09:44:18;;;;;;;9.38;1.83;;;17.30;99.90;;;;;;5014277;28;20034;-94
2022/10/27 09:46:53;;;;;;;4.57;2.00;;;17.30;99.90;;;;;;5029609;28;20570;-92
2022/10/27 09:49:25;;;;;;;9.05;2.08;;;17.30;99.90;;;;;;5018184;28;20294;-94
2022/10/27 09:51:58;;;;;;;10.43;2.40;;;17.30;99.90;;;;;;5022356;28;20073;-94
2022/10/27 09:54:35;;;;;;;8.95;2.65;;;17.40;99.90;;;;;;5020204;28;20076;-93
2022/10/27 09:57:10;;;;;;;5.20;2.33;;;17.50;99.90;;;;;;5014825;28;20061;-90
2022/10/27 09:59:37;;;;;;;6.80;2.10;;;17.50;99.90;;;;;;5019241;28;20025;-94
2022/10/27 10:02:26;;;;;;;9.43;2.47;;;17.50;99.90;;;;;;5027209;28;20053;-95
2022/10/27 10:04:53;;;;;;;5.68;2.72;;;17.60;99.90;;;;;;5023904;28;20041;-96
2022/10/27 10:07:37;;;;;;;10.63;2.50;;;17.60;99.90;;;;;;5020148;28;20104;-95
2022/10/27 10:10:26;;;;;;;10.20;2.53;;;17.60;99.90;;;;;;5019567;28;20057;-94
2022/10/27 10:13:05;;;;;;;10.63;2.90;;;17.60;99.90;;;;;;5017200;28;20068;-92
2022/10/27 10:16:08;;;;;;;6.85;2.17;;;17.70;99.90;;;;;;5019288;28;20472;-94
2022/10/27 10:18:35;;;;;;;8.80;2.28;;;17.70;99.90;;;;;;5011388;28;20034;-89
2022/10/27 10:21:07;;;;;;;5.25;2.40;;;17.70;99.90;;;;;;5025318;28;20030;-93
2022/10/27 10:23:59;;;;;;;8.15;3.05;;;17.70;99.90;;;;;;5017832;28;20036;-89
2022/10/27 10:26:33;;;;;;;10.00;2.42;;;17.70;99.90;;;;;;5017367;28;20094;-95
2022/10/27 10:29:12;;;;;;;5.97;2.53;;;17.90;99.90;;;;;;5018121;28;20032;-94
2022/10/27 10:31:38;;;;;;;11.05;2.72;;;17.90;99.90;;;;;;5026576;28;20032;-95
2022/10/27 10:34:07;;;;;;;4.20;1.95;;;17.90;99.90;;;;;;5009071;28;20097;-91
2022/10/27 10:36:38;;;;;;;14.23;3.17;;;17.90;99.90;;;;;;5020647;28;20112;-93
2022/10/27 10:39:39;;;;;;;11.48;2.10;;;18.10;99.90;;;;;;5023320;28;20102;-94
2022/10/27 10:42:16;;;;;;;10.00;1.92;;;18.30;99.90;;;;;;4947214;28;20035;-94
2022/10/27 10:45:21;;;;;;;5.55;1.75;;;18.40;99.90;;;;;;5003530;28;20041;-91
2022/10/27 10:47:54;;;;;;;10.73;2.13;;;18.40;99.90;;;;;;5015789;28;20036;-91
2022/10/27 10:50:20;;;;;;;1.80;1.27;;;18.40;99.90;;;;;;5005309;28;20282;-94
2022/10/27 10:52:51;;;;;;;11.18;1.95;;;18.40;99.90;;;;;;5017564;28;20026;-92
2022/10/27 10:55:23;;;;;;;2.40;1.38;;;18.30;99.90;;;;;;5022373;28;20041;-93
2022/10/27 10:57:51;;;;;;;4.75;1.48;;;18.40;99.90;;;;;;5018993;28;20036;-91
2022/10/27 11:00:19;;;;;;;3.67;1.35;;;18.40;99.90;;;;;;5023576;28;20120;-91
2022/10/27 11:02:54;;;;;;;8.95;1.60;;;18.40;99.90;;;;;;5019888;28;20026;-92
2022/10/27 11:05:28;;;;;;;5.37;1.93;;;18.40;99.90;;;;;;5023877;28;20147;-94
2022/10/27 11:07:54;;;;;;;4.93;1.98;;;18.40;99.90;;;;;;5030650;28;20040;-96
2022/10/27 11:10:30;;;;;;;6.65;2.30;;;18.40;99.90;;;;;;5017749;28;20467;-96
2022/10/27 11:13:11;;;;;;;15.05;1.77;;;18.40;99.90;;;;;;5013874;28;20187;-94
2022/10/27 11:16:04;;;;;;;9.45;2.10;;;18.50;99.90;;;;;;5011462;28;20120;-95
2022/10/27 11:18:40;;;;;;;4.15;0.90;;;18.50;99.90;;;;;;5018481;28;20094;-92
2022/10/27 11:21:30;;;;;;;3.78;1.20;;;18.50;99.90;;;;;;5014357;28;20030;-92
2022/10/27 11:24:01;;;;;;;2.03;1.05;;;18.50;99.90;;;;;;5025132;28;20080;-94
2022/10/27 11:26:40;;;;;;;14.77;2.67;;;18.60;99.90;;;;;;5029691;28;20013;-95
2022/10/27 11:29:17;;;;;;;3.90;1.48;;;18.60;99.90;;;;;;5022581;28;20371;-96
2022/10/27 11:31:57;;;;;;;10.38;1.73;;;18.60;99.90;;;;;;5013569;28;20048;-96
2022/10/27 11:34:46;;;;;;;9.38;2.80;;;18.60;99.90;;;;;;5025967;28;20053;-88
2022/10/27 11:37:30;;;;;;;11.05;2.88;;;18.70;99.90;;;;;;5027829;28;20075;-94
2022/10/27 11:40:13;;;;;;;6.30;2.03;;;18.70;99.90;;;;;;5013619;28;20562;-95
2022/10/27 11:43:02;;;;;;;8.98;1.92;;;18.80;99.90;;;;;;5026189;28;20029;-93
2022/10/27 11:45:48;;;;;;;4.88;1.55;;;18.90;99.90;;;;;;5021542;28;20087;-88
2022/10/27 11:48:20;;;;;;;4.43;1.23;;;19.00;99.90;;;;;;5021741;28;20505;-95
2022/10/27 11:51:05;;;;;;;5.13;1.30;;;19.00;99.90;;;;;;5015087;28;20032;-89
2022/10/27 11:53:30;;;;;;;7.65;1.67;;;19.00;99.90;;;;;;5025207;28;20029;-90
2022/10/27 11:56:18;;;;;;;3.50;1.10;;;19.00;99.90;;;;;;5021927;28;20040;-95
2022/10/27 11:59:05;;;;;;;4.20;1.10;;;19.10;99.90;;;;;;5017323;28;20056;-96
2022/10/27 12:01:36;;;;;;;3.42;1.40;;;19.10;99.90;;;;;;5017863;28;20018;-91
2022/10/27 12:04:10;;;;;;;4.88;1.70;;;19.20;99.90;;;;;;5021260;28;20036;-87
2022/10/27 12:06:59;;;;;;;4.22;1.02;;;19.10;99.90;;;;;;5017568;28;20541;-96
2022/10/27 12:09:42;;;;;;;5.22;1.00;;;19.10;99.90;;;;;;4999928;28;20121;-93
2022/10/27 12:12:19;;;;;;;5.03;1.30;;;19.20;99.90;;;;;;5000311;28;20129;-87
2022/10/27 12:14:58;;;;;;;3.75;0.80;;;19.20;99.90;;;;;;4999832;28;20403;-93
2022/10/27 12:17:40;;;;;;;3.05;1.00;;;19.20;99.90;;;;;;5021655;28;20063;-92
2022/10/27 12:20:08;;;;;;;2.80;1.05;;;19.30;99.90;;;;;;5014045;28;20032;-96
2022/10/27 12:23:06;;;;;;;4.38;0.80;;;19.40;99.90;;;;;;5018338;28;20031;-94
2022/10/27 12:25:55;;;;;;;6.47;1.25;;;19.40;99.90;;;;;;5021727;28;20052;-91
2022/10/27 12:28:25;;;;;;;7.47;0.95;;;19.40;99.90;;;;;;5026384;28;20026;-96
2022/10/27 12:30:51;;;;;;;4.15;1.50;;;19.40;99.90;;;;;;5028053;28;20041;-96
2022/10/27 12:33:42;;;;;;;9.13;1.30;;;19.40;99.90;;;;;;5022722;28;20026;-94
2022/10/27 12:36:37;;;;;;;1.85;0.98;;;19.50;99.90;;;;;;5013635;28;20049;-96
2022/10/27 12:39:28;;;;;;;3.15;1.35;;;19.60;99.90;;;;;;5027484;28;20353;-96
2022/10/27 12:42:10;;;;;;;6.35;1.00;;;19.60;99.90;;;;;;5021678;28;20053;-96
2022/10/27 12:44:47;;;;;;;5.43;1.13;;;19.80;99.90;;;;;;5023986;28;20319;-96
2022/10/27 12:47:31;;;;;;;1.55;0.95;;;19.80;99.90;;;;;;5025734;28;20033;-93
2022/10/27 12:50:10;;;;;;;5.13;1.00;;;19.80;99.90;;;;;;5017235;28;20533;-94
2022/10/27 12:52:55;;;;;;;10.38;1.23;;;19.80;99.90;;;;;;5021571;28;20040;-94
2022/10/27 12:55:38;;;;;;;4.22;1.45;;;19.80;99.90;;;;;;5015775;28;20124;-93
2022/10/27 12:58:48;;;;;;;3.15;1.00;;;19.70;99.90;;;;;;5015727;28;20449;-91
2022/10/27 13:01:54;;;;;;;3.17;1.20;;;19.70;99.90;;;;;;4958043;28;20382;-91
2022/10/27 13:04:41;;;;;;;1.67;1.00;;;19.70;99.90;;;;;;5021743;28;20017;-93
2022/10/27 13:07:40;;;;;;;5.32;1.30;;;19.60;99.90;;;;;;5023601;28;20033;-94